Pilot Knob, Illinois
Current Conditions -  °F | °C
As of 4:15 AM on Wednesday 26 Nov 2014 (Local Time) from KSAR Reporting Station
Clear Clear  
Wind Chill: 21°   Ceiling: Unl
Heat Index: 27°   Visibility: 10mi
Dew Point: 25°   Wind: 5mph
Humidity: 93%   Direction: 120°ESE
Pressure: 30.12"   Gusts: NA
Location:  38.318°N, 89.3879°W
Report Text: KSAR 261015Z AUTO 12004KT 10SM CLR M03/M04 A3012 RMK AO2 T10301040
Loading
Personal Weather Stations






























Interactive Weather Map New forecast layout! Learn more

10-Day Weather Forecast

Advertisements
Track Severe Weather on mobile